sensor_id;sensor_type;location;lat;lon;timestamp;P1;durP1;ratioP1;P2;durP2;ratioP2
1328;SDS011;658;48.820;9.354;2023-02-15T00:02:37;3.10;;;2.90;;
1328;SDS011;658;48.820;9.354;2023-02-15T00:06:38;3.07;;;2.87;;
1328;SDS011;658;48.820;9.354;2023-02-15T00:10:38;3.07;;;2.87;;
1328;SDS011;658;48.820;9.354;2023-02-15T00:14:39;2.80;;;2.60;;
1328;SDS011;658;48.820;9.354;2023-02-15T00:18:39;2.97;;;2.77;;
1328;SDS011;658;48.820;9.354;2023-02-15T00:22:40;2.90;;;2.70;;
1328;SDS011;658;48.820;9.354;2023-02-15T00:26:41;3.50;;;3.20;;
1328;SDS011;658;48.820;9.354;2023-02-15T00:30:42;2.90;;;2.70;;
1328;SDS011;658;48.820;9.354;2023-02-15T00:34:43;2.93;;;2.73;;
1328;SDS011;658;48.820;9.354;2023-02-15T00:38:43;3.10;;;2.90;;
1328;SDS011;658;48.820;9.354;2023-02-15T00:42:44;2.80;;;2.60;;
1328;SDS011;658;48.820;9.354;2023-02-15T00:46:45;2.83;;;2.63;;
1328;SDS011;658;48.820;9.354;2023-02-15T00:50:46;3.13;;;2.93;;
1328;SDS011;658;48.820;9.354;2023-02-15T00:54:48;2.80;;;2.60;;
1328;SDS011;658;48.820;9.354;2023-02-15T00:58:49;2.90;;;2.70;;
1328;SDS011;658;48.820;9.354;2023-02-15T01:02:49;3.70;;;3.40;;
1328;SDS011;658;48.820;9.354;2023-02-15T01:06:50;3.13;;;2.93;;
1328;SDS011;658;48.820;9.354;2023-02-15T01:10:51;2.97;;;2.77;;
1328;SDS011;658;48.820;9.354;2023-02-15T01:14:51;3.53;;;3.23;;
1328;SDS011;658;48.820;9.354;2023-02-15T01:18:52;2.67;;;2.50;;
1328;SDS011;658;48.820;9.354;2023-02-15T01:22:54;3.17;;;2.97;;
1328;SDS011;658;48.820;9.354;2023-02-15T01:26:56;2.90;;;2.70;;
1328;SDS011;658;48.820;9.354;2023-02-15T01:30:57;3.10;;;2.90;;
1328;SDS011;658;48.820;9.354;2023-02-15T01:34:59;2.77;;;2.57;;
1328;SDS011;658;48.820;9.354;2023-02-15T01:39:00;2.97;;;2.77;;
1328;SDS011;658;48.820;9.354;2023-02-15T01:43:00;3.10;;;2.80;;
1328;SDS011;658;48.820;9.354;2023-02-15T01:47:01;3.03;;;2.83;;
1328;SDS011;658;48.820;9.354;2023-02-15T01:51:02;2.90;;;2.70;;
1328;SDS011;658;48.820;9.354;2023-02-15T01:55:02;3.13;;;2.93;;
1328;SDS011;658;48.820;9.354;2023-02-15T01:59:05;3.40;;;3.20;;
1328;SDS011;658;48.820;9.354;2023-02-15T02:03:09;3.07;;;2.87;;
1328;SDS011;658;48.820;9.354;2023-02-15T02:07:10;3.30;;;3.00;;
1328;SDS011;658;48.820;9.354;2023-02-15T02:11:14;3.30;;;3.10;;
1328;SDS011;658;48.820;9.354;2023-02-15T02:15:15;3.27;;;3.00;;
1328;SDS011;658;48.820;9.354;2023-02-15T02:41:42;3.07;;;2.87;;
1328;SDS011;658;48.820;9.354;2023-02-15T02:45:53;2.83;;;2.63;;
1328;SDS011;658;48.820;9.354;2023-02-15T02:49:59;3.00;;;2.80;;
1328;SDS011;658;48.820;9.354;2023-02-15T02:54:04;3.47;;;3.17;;
1328;SDS011;658;48.820;9.354;2023-02-15T02:58:11;3.03;;;2.83;;
1328;SDS011;658;48.820;9.354;2023-02-15T03:02:33;3.07;;;2.87;;
1328;SDS011;658;48.820;9.354;2023-02-15T03:06:46;3.50;;;3.30;;
1328;SDS011;658;48.820;9.354;2023-02-15T03:10:53;3.30;;;3.10;;
1328;SDS011;658;48.820;9.354;2023-02-15T03:15:06;2.93;;;2.73;;
1328;SDS011;658;48.820;9.354;2023-02-15T03:19:17;3.40;;;3.20;;
1328;SDS011;658;48.820;9.354;2023-02-15T03:23:24;3.00;;;2.80;;
1328;SDS011;658;48.820;9.354;2023-02-15T03:27:27;3.97;;;3.30;;
1328;SDS011;658;48.820;9.354;2023-02-15T03:31:38;3.00;;;2.80;;
1328;SDS011;658;48.820;9.354;2023-02-15T03:35:47;3.13;;;2.93;;
1328;SDS011;658;48.820;9.354;2023-02-15T03:44:30;2.90;;;2.70;;
1328;SDS011;658;48.820;9.354;2023-02-15T03:48:37;2.83;;;2.73;;
1328;SDS011;658;48.820;9.354;2023-02-15T03:52:48;3.30;;;3.10;;
1328;SDS011;658;48.820;9.354;2023-02-15T03:56:48;3.10;;;2.90;;
1328;SDS011;658;48.820;9.354;2023-02-15T04:01:25;3.40;;;3.10;;
1328;SDS011;658;48.820;9.354;2023-02-15T04:05:49;2.90;;;2.70;;
1328;SDS011;658;48.820;9.354;2023-02-15T04:09:50;3.20;;;3.00;;
1328;SDS011;658;48.820;9.354;2023-02-15T04:14:09;2.87;;;2.70;;
1328;SDS011;658;48.820;9.354;2023-02-15T04:18:36;3.03;;;2.83;;
1328;SDS011;658;48.820;9.354;2023-02-15T04:22:57;2.83;;;2.63;;
1328;SDS011;658;48.820;9.354;2023-02-15T04:27:16;3.40;;;3.20;;
1328;SDS011;658;48.820;9.354;2023-02-15T04:31:16;3.00;;;2.80;;
1328;SDS011;658;48.820;9.354;2023-02-15T04:35:17;3.00;;;2.80;;
1328;SDS011;658;48.820;9.354;2023-02-15T04:39:18;3.47;;;3.17;;
1328;SDS011;658;48.820;9.354;2023-02-15T04:43:19;2.90;;;2.70;;
1328;SDS011;658;48.820;9.354;2023-02-15T04:47:20;2.90;;;2.70;;
1328;SDS011;658;48.820;9.354;2023-02-15T04:51:21;3.00;;;2.80;;
1328;SDS011;658;48.820;9.354;2023-02-15T04:55:22;3.30;;;3.10;;
1328;SDS011;658;48.820;9.354;2023-02-15T04:59:22;3.23;;;3.03;;
1328;SDS011;658;48.820;9.354;2023-02-15T05:03:23;3.40;;;3.10;;
1328;SDS011;658;48.820;9.354;2023-02-15T05:07:24;2.90;;;2.60;;
1328;SDS011;658;48.820;9.354;2023-02-15T05:11:25;3.83;;;3.53;;
1328;SDS011;658;48.820;9.354;2023-02-15T05:15:26;3.50;;;3.30;;
1328;SDS011;658;48.820;9.354;2023-02-15T05:19:27;3.40;;;3.20;;
1328;SDS011;658;48.820;9.354;2023-02-15T05:23:28;3.40;;;3.20;;
1328;SDS011;658;48.820;9.354;2023-02-15T05:27:28;4.13;;;3.30;;
1328;SDS011;658;48.820;9.354;2023-02-15T05:31:47;3.83;;;3.53;;
1328;SDS011;658;48.820;9.354;2023-02-15T05:35:48;3.40;;;3.20;;
1328;SDS011;658;48.820;9.354;2023-02-15T05:39:49;3.70;;;3.40;;
1328;SDS011;658;48.820;9.354;2023-02-15T05:43:49;3.30;;;3.10;;
1328;SDS011;658;48.820;9.354;2023-02-15T05:47:50;3.53;;;3.23;;
1328;SDS011;658;48.820;9.354;2023-02-15T05:51:50;3.17;;;2.90;;
1328;SDS011;658;48.820;9.354;2023-02-15T05:55:51;3.63;;;3.20;;
1328;SDS011;658;48.820;9.354;2023-02-15T05:59:52;3.80;;;3.50;;
1328;SDS011;658;48.820;9.354;2023-02-15T06:03:52;3.37;;;3.17;;
1328;SDS011;658;48.820;9.354;2023-02-15T06:07:54;4.23;;;3.73;;
1328;SDS011;658;48.820;9.354;2023-02-15T06:11:54;4.87;;;3.20;;
1328;SDS011;658;48.820;9.354;2023-02-15T06:15:55;4.13;;;3.10;;
1328;SDS011;658;48.820;9.354;2023-02-15T06:19:55;3.77;;;3.47;;
1328;SDS011;658;48.820;9.354;2023-02-15T06:23:56;4.60;;;4.20;;
1328;SDS011;658;48.820;9.354;2023-02-15T06:27:57;4.57;;;3.67;;
1328;SDS011;658;48.820;9.354;2023-02-15T06:31:58;3.70;;;3.40;;
1328;SDS011;658;48.820;9.354;2023-02-15T06:35:58;5.13;;;3.80;;
1328;SDS011;658;48.820;9.354;2023-02-15T06:39:59;3.73;;;3.40;;
1328;SDS011;658;48.820;9.354;2023-02-15T06:43:59;3.50;;;3.20;;
1328;SDS011;658;48.820;9.354;2023-02-15T06:48:00;3.43;;;3.23;;
1328;SDS011;658;48.820;9.354;2023-02-15T06:52:01;3.97;;;3.57;;
1328;SDS011;658;48.820;9.354;2023-02-15T06:56:02;5.20;;;3.30;;
1328;SDS011;658;48.820;9.354;2023-02-15T07:00:06;3.10;;;2.90;;
1328;SDS011;658;48.820;9.354;2023-02-15T07:04:08;3.60;;;3.40;;
1328;SDS011;658;48.820;9.354;2023-02-15T07:08:08;3.50;;;3.20;;
1328;SDS011;658;48.820;9.354;2023-02-15T07:12:09;3.47;;;3.27;;
1328;SDS011;658;48.820;9.354;2023-02-15T07:16:28;3.27;;;3.03;;
1328;SDS011;658;48.820;9.354;2023-02-15T07:20:28;3.20;;;3.00;;
1328;SDS011;658;48.820;9.354;2023-02-15T07:24:29;4.07;;;3.20;;
1328;SDS011;658;48.820;9.354;2023-02-15T07:28:30;4.07;;;3.70;;
1328;SDS011;658;48.820;9.354;2023-02-15T07:32:32;3.90;;;3.30;;
1328;SDS011;658;48.820;9.354;2023-02-15T07:36:33;3.70;;;3.00;;
1328;SDS011;658;48.820;9.354;2023-02-15T07:40:34;5.03;;;3.50;;
1328;SDS011;658;48.820;9.354;2023-02-15T07:44:34;5.80;;;4.40;;
1328;SDS011;658;48.820;9.354;2023-02-15T07:48:35;3.30;;;3.00;;
1328;SDS011;658;48.820;9.354;2023-02-15T07:52:36;3.40;;;3.20;;
1328;SDS011;658;48.820;9.354;2023-02-15T07:56:37;3.80;;;3.50;;
1328;SDS011;658;48.820;9.354;2023-02-15T08:00:38;3.90;;;3.60;;
1328;SDS011;658;48.820;9.354;2023-02-15T08:04:56;3.67;;;3.37;;
1328;SDS011;658;48.820;9.354;2023-02-15T08:08:57;4.90;;;3.63;;
1328;SDS011;658;48.820;9.354;2023-02-15T08:12:58;3.90;;;3.60;;
1328;SDS011;658;48.820;9.354;2023-02-15T08:16:59;3.60;;;3.30;;
1328;SDS011;658;48.820;9.354;2023-02-15T08:21:02;3.83;;;3.53;;
1328;SDS011;658;48.820;9.354;2023-02-15T08:25:04;3.90;;;3.60;;
1328;SDS011;658;48.820;9.354;2023-02-15T08:29:06;3.97;;;3.67;;
1328;SDS011;658;48.820;9.354;2023-02-15T08:33:08;3.73;;;3.50;;
1328;SDS011;658;48.820;9.354;2023-02-15T08:37:09;3.73;;;3.43;;
1328;SDS011;658;48.820;9.354;2023-02-15T08:41:14;3.93;;;3.63;;
1328;SDS011;658;48.820;9.354;2023-02-15T08:45:18;9.27;;;4.07;;
1328;SDS011;658;48.820;9.354;2023-02-15T08:49:20;3.40;;;3.20;;
1328;SDS011;658;48.820;9.354;2023-02-15T08:53:21;3.67;;;3.40;;
1328;SDS011;658;48.820;9.354;2023-02-15T08:57:22;3.83;;;3.53;;
1328;SDS011;658;48.820;9.354;2023-02-15T09:01:23;3.87;;;3.37;;
1328;SDS011;658;48.820;9.354;2023-02-15T09:05:25;3.47;;;3.20;;
1328;SDS011;658;48.820;9.354;2023-02-15T09:09:26;3.50;;;3.30;;
1328;SDS011;658;48.820;9.354;2023-02-15T09:13:27;4.13;;;3.83;;
1328;SDS011;658;48.820;9.354;2023-02-15T09:17:27;4.13;;;3.73;;
1328;SDS011;658;48.820;9.354;2023-02-15T09:21:28;4.43;;;4.13;;
1328;SDS011;658;48.820;9.354;2023-02-15T09:25:29;3.87;;;3.57;;
1328;SDS011;658;48.820;9.354;2023-02-15T09:29:30;4.43;;;3.80;;
1328;SDS011;658;48.820;9.354;2023-02-15T09:33:30;4.03;;;3.73;;
1328;SDS011;658;48.820;9.354;2023-02-15T09:37:33;3.87;;;3.37;;
1328;SDS011;658;48.820;9.354;2023-02-15T09:46:03;4.10;;;3.83;;
1328;SDS011;658;48.820;9.354;2023-02-15T10:03:38;3.90;;;3.60;;
1328;SDS011;658;48.820;9.354;2023-02-15T10:12:02;3.50;;;3.20;;
1328;SDS011;658;48.820;9.354;2023-02-15T10:41:54;3.67;;;3.47;;
1328;SDS011;658;48.820;9.354;2023-02-15T10:50:43;3.63;;;3.33;;
1328;SDS011;658;48.820;9.354;2023-02-15T11:07:51;3.90;;;3.67;;
1328;SDS011;658;48.820;9.354;2023-02-15T11:11:55;3.13;;;2.90;;
1328;SDS011;658;48.820;9.354;2023-02-15T11:16:00;4.03;;;3.73;;
1328;SDS011;658;48.820;9.354;2023-02-15T11:20:29;3.60;;;3.30;;
1328;SDS011;658;48.820;9.354;2023-02-15T11:24:42;3.40;;;3.10;;
1328;SDS011;658;48.820;9.354;2023-02-15T11:28:50;3.30;;;3.10;;
1328;SDS011;658;48.820;9.354;2023-02-15T11:32:58;3.17;;;2.97;;
1328;SDS011;658;48.820;9.354;2023-02-15T11:37:05;3.30;;;3.10;;
1328;SDS011;658;48.820;9.354;2023-02-15T11:41:17;3.47;;;3.20;;
1328;SDS011;658;48.820;9.354;2023-02-15T11:45:28;3.37;;;3.17;;
1328;SDS011;658;48.820;9.354;2023-02-15T11:49:34;3.13;;;2.93;;
1328;SDS011;658;48.820;9.354;2023-02-15T11:53:35;2.80;;;2.70;;
1328;SDS011;658;48.820;9.354;2023-02-15T11:57:38;2.90;;;2.70;;
1328;SDS011;658;48.820;9.354;2023-02-15T12:01:44;3.00;;;2.80;;
1328;SDS011;658;48.820;9.354;2023-02-15T12:05:47;3.37;;;3.07;;
1328;SDS011;658;48.820;9.354;2023-02-15T12:09:59;3.03;;;2.83;;
1328;SDS011;658;48.820;9.354;2023-02-15T12:14:12;3.27;;;3.07;;
1328;SDS011;658;48.820;9.354;2023-02-15T12:22:36;3.47;;;3.17;;
1328;SDS011;658;48.820;9.354;2023-02-15T12:26:37;2.70;;;2.50;;
1328;SDS011;658;48.820;9.354;2023-02-15T12:30:38;2.80;;;2.60;;
1328;SDS011;658;48.820;9.354;2023-02-15T12:34:42;2.47;;;2.37;;
1328;SDS011;658;48.820;9.354;2023-02-15T12:43:15;2.70;;;2.60;;
1328;SDS011;658;48.820;9.354;2023-02-15T12:47:29;2.30;;;2.10;;
1328;SDS011;658;48.820;9.354;2023-02-15T12:51:31;2.93;;;2.83;;
1328;SDS011;658;48.820;9.354;2023-02-15T12:55:57;3.83;;;2.60;;
1328;SDS011;658;48.820;9.354;2023-02-15T13:04:08;2.80;;;2.60;;
1328;SDS011;658;48.820;9.354;2023-02-15T13:08:21;3.77;;;3.53;;
1328;SDS011;658;48.820;9.354;2023-02-15T13:12:30;14.07;;;13.07;;
1328;SDS011;658;48.820;9.354;2023-02-15T13:16:33;12.63;;;11.73;;
1328;SDS011;658;48.820;9.354;2023-02-15T13:20:36;11.40;;;10.50;;
1328;SDS011;658;48.820;9.354;2023-02-15T13:24:41;9.70;;;8.90;;
1328;SDS011;658;48.820;9.354;2023-02-15T13:28:46;9.03;;;8.37;;
1328;SDS011;658;48.820;9.354;2023-02-15T13:32:55;7.53;;;6.93;;
1328;SDS011;658;48.820;9.354;2023-02-15T13:37:08;7.67;;;7.07;;
1328;SDS011;658;48.820;9.354;2023-02-15T13:41:41;7.33;;;6.67;;
1328;SDS011;658;48.820;9.354;2023-02-15T14:07:47;5.30;;;5.00;;
1328;SDS011;658;48.820;9.354;2023-02-15T14:11:56;5.90;;;5.50;;
1328;SDS011;658;48.820;9.354;2023-02-15T14:20:41;5.33;;;4.93;;
1328;SDS011;658;48.820;9.354;2023-02-15T14:29:27;4.80;;;4.50;;
1328;SDS011;658;48.820;9.354;2023-02-15T14:33:55;5.50;;;5.00;;
1328;SDS011;658;48.820;9.354;2023-02-15T14:42:18;5.30;;;4.90;;
1328;SDS011;658;48.820;9.354;2023-02-15T14:58:34;4.97;;;4.57;;
1328;SDS011;658;48.820;9.354;2023-02-15T15:02:54;4.47;;;4.17;;
1328;SDS011;658;48.820;9.354;2023-02-15T15:07:08;4.53;;;4.17;;
1328;SDS011;658;48.820;9.354;2023-02-15T15:23:44;4.20;;;3.97;;
1328;SDS011;658;48.820;9.354;2023-02-15T15:31:54;4.00;;;3.80;;
1328;SDS011;658;48.820;9.354;2023-02-15T15:49:15;4.40;;;4.00;;
1328;SDS011;658;48.820;9.354;2023-02-15T15:53:25;3.90;;;3.63;;
1328;SDS011;658;48.820;9.354;2023-02-15T15:57:32;4.47;;;4.03;;
1328;SDS011;658;48.820;9.354;2023-02-15T16:01:39;4.30;;;4.00;;
1328;SDS011;658;48.820;9.354;2023-02-15T16:05:42;4.20;;;3.90;;
1328;SDS011;658;48.820;9.354;2023-02-15T16:09:55;4.40;;;4.00;;
1328;SDS011;658;48.820;9.354;2023-02-15T16:13:58;3.77;;;3.57;;
1328;SDS011;658;48.820;9.354;2023-02-15T16:17:59;3.53;;;3.33;;
1328;SDS011;658;48.820;9.354;2023-02-15T16:22:01;3.90;;;3.67;;
1328;SDS011;658;48.820;9.354;2023-02-15T16:30:35;4.40;;;4.00;;
1328;SDS011;658;48.820;9.354;2023-02-15T16:34:38;3.60;;;3.40;;
1328;SDS011;658;48.820;9.354;2023-02-15T16:42:42;3.50;;;3.30;;
1328;SDS011;658;48.820;9.354;2023-02-15T16:46:43;4.17;;;3.87;;
1328;SDS011;658;48.820;9.354;2023-02-15T16:50:49;3.90;;;3.60;;
1328;SDS011;658;48.820;9.354;2023-02-15T16:54:56;4.27;;;3.97;;
1328;SDS011;658;48.820;9.354;2023-02-15T16:59:03;4.37;;;3.97;;
1328;SDS011;658;48.820;9.354;2023-02-15T17:11:20;3.90;;;3.60;;
1328;SDS011;658;48.820;9.354;2023-02-15T17:19:55;3.87;;;3.63;;
1328;SDS011;658;48.820;9.354;2023-02-15T17:23:59;5.10;;;3.77;;
1328;SDS011;658;48.820;9.354;2023-02-15T17:28:04;3.87;;;3.60;;
1328;SDS011;658;48.820;9.354;2023-02-15T17:32:12;3.33;;;3.13;;
1328;SDS011;658;48.820;9.354;2023-02-15T17:36:20;3.83;;;3.43;;
1328;SDS011;658;48.820;9.354;2023-02-15T17:44:28;3.70;;;3.40;;
1328;SDS011;658;48.820;9.354;2023-02-15T17:48:33;4.00;;;3.60;;
1328;SDS011;658;48.820;9.354;2023-02-15T17:52:35;4.00;;;3.70;;
1328;SDS011;658;48.820;9.354;2023-02-15T17:56:37;4.10;;;3.60;;
1328;SDS011;658;48.820;9.354;2023-02-15T18:00:39;4.23;;;3.80;;
1328;SDS011;658;48.820;9.354;2023-02-15T18:05:00;4.00;;;3.70;;
1328;SDS011;658;48.820;9.354;2023-02-15T18:09:20;5.87;;;4.10;;
1328;SDS011;658;48.820;9.354;2023-02-15T18:13:40;4.93;;;3.60;;
1328;SDS011;658;48.820;9.354;2023-02-15T18:17:42;4.37;;;3.80;;
1328;SDS011;658;48.820;9.354;2023-02-15T18:21:45;4.97;;;3.67;;
1328;SDS011;658;48.820;9.354;2023-02-15T18:25:46;3.90;;;3.60;;
1328;SDS011;658;48.820;9.354;2023-02-15T18:29:47;4.43;;;3.53;;
1328;SDS011;658;48.820;9.354;2023-02-15T18:33:57;4.27;;;3.87;;
1328;SDS011;658;48.820;9.354;2023-02-15T18:38:00;4.43;;;4.13;;
1328;SDS011;658;48.820;9.354;2023-02-15T18:42:01;3.70;;;3.40;;
1328;SDS011;658;48.820;9.354;2023-02-15T18:46:02;3.77;;;3.47;;
1328;SDS011;658;48.820;9.354;2023-02-15T18:50:04;5.30;;;4.07;;
1328;SDS011;658;48.820;9.354;2023-02-15T18:54:10;4.03;;;3.73;;
1328;SDS011;658;48.820;9.354;2023-02-15T18:58:21;4.17;;;3.77;;
1328;SDS011;658;48.820;9.354;2023-02-15T19:02:23;4.43;;;4.13;;
1328;SDS011;658;48.820;9.354;2023-02-15T19:06:24;4.40;;;4.07;;
1328;SDS011;658;48.820;9.354;2023-02-15T19:10:25;4.30;;;4.00;;
1328;SDS011;658;48.820;9.354;2023-02-15T19:14:28;4.43;;;3.70;;
1328;SDS011;658;48.820;9.354;2023-02-15T19:18:30;3.47;;;3.17;;
1328;SDS011;658;48.820;9.354;2023-02-15T19:22:31;4.50;;;4.10;;
1328;SDS011;658;48.820;9.354;2023-02-15T19:26:36;4.33;;;4.03;;
1328;SDS011;658;48.820;9.354;2023-02-15T19:30:41;4.30;;;4.00;;
1328;SDS011;658;48.820;9.354;2023-02-15T19:34:41;4.37;;;4.00;;
1328;SDS011;658;48.820;9.354;2023-02-15T19:38:43;4.20;;;3.90;;
1328;SDS011;658;48.820;9.354;2023-02-15T19:42:48;4.43;;;4.03;;
1328;SDS011;658;48.820;9.354;2023-02-15T19:46:48;3.50;;;3.30;;
1328;SDS011;658;48.820;9.354;2023-02-15T19:50:49;3.77;;;3.47;;
1328;SDS011;658;48.820;9.354;2023-02-15T19:54:52;3.67;;;3.37;;
1328;SDS011;658;48.820;9.354;2023-02-15T20:03:48;5.00;;;4.60;;
1328;SDS011;658;48.820;9.354;2023-02-15T20:07:51;4.00;;;3.70;;
1328;SDS011;658;48.820;9.354;2023-02-15T20:11:53;4.03;;;3.73;;
1328;SDS011;658;48.820;9.354;2023-02-15T20:15:54;4.17;;;3.87;;
1328;SDS011;658;48.820;9.354;2023-02-15T20:19:59;4.13;;;3.73;;
1328;SDS011;658;48.820;9.354;2023-02-15T20:24:34;4.30;;;3.20;;
1328;SDS011;658;48.820;9.354;2023-02-15T20:28:56;4.80;;;4.17;;
1328;SDS011;658;48.820;9.354;2023-02-15T20:33:20;4.07;;;3.73;;
1328;SDS011;658;48.820;9.354;2023-02-15T20:37:27;4.10;;;3.80;;
1328;SDS011;658;48.820;9.354;2023-02-15T20:41:30;4.97;;;4.33;;
1328;SDS011;658;48.820;9.354;2023-02-15T20:45:45;4.33;;;3.67;;
1328;SDS011;658;48.820;9.354;2023-02-15T20:49:46;5.43;;;4.00;;
1328;SDS011;658;48.820;9.354;2023-02-15T20:53:47;4.40;;;3.80;;
1328;SDS011;658;48.820;9.354;2023-02-15T20:57:48;3.60;;;3.30;;
1328;SDS011;658;48.820;9.354;2023-02-15T21:01:50;4.20;;;3.90;;
1328;SDS011;658;48.820;9.354;2023-02-15T21:05:53;3.90;;;3.67;;
1328;SDS011;658;48.820;9.354;2023-02-15T21:09:54;6.47;;;3.90;;
1328;SDS011;658;48.820;9.354;2023-02-15T21:13:54;3.53;;;3.33;;
1328;SDS011;658;48.820;9.354;2023-02-15T21:17:55;4.37;;;3.80;;
1328;SDS011;658;48.820;9.354;2023-02-15T21:21:57;6.00;;;4.97;;
1328;SDS011;658;48.820;9.354;2023-02-15T21:25:59;4.60;;;4.30;;
1328;SDS011;658;48.820;9.354;2023-02-15T21:30:00;4.17;;;3.87;;
1328;SDS011;658;48.820;9.354;2023-02-15T21:34:01;4.13;;;3.83;;
1328;SDS011;658;48.820;9.354;2023-02-15T21:38:02;4.93;;;3.70;;
1328;SDS011;658;48.820;9.354;2023-02-15T21:42:05;3.57;;;3.27;;
1328;SDS011;658;48.820;9.354;2023-02-15T21:46:28;3.93;;;3.63;;
1328;SDS011;658;48.820;9.354;2023-02-15T21:50:50;4.20;;;3.83;;
1328;SDS011;658;48.820;9.354;2023-02-15T21:55:14;4.27;;;3.97;;
1328;SDS011;658;48.820;9.354;2023-02-15T21:59:15;3.73;;;3.23;;
1328;SDS011;658;48.820;9.354;2023-02-15T22:03:17;4.23;;;3.93;;
1328;SDS011;658;48.820;9.354;2023-02-15T22:07:17;3.87;;;3.57;;
1328;SDS011;658;48.820;9.354;2023-02-15T22:11:19;3.83;;;3.53;;
1328;SDS011;658;48.820;9.354;2023-02-15T22:15:23;4.50;;;3.50;;
1328;SDS011;658;48.820;9.354;2023-02-15T22:19:28;3.80;;;3.50;;
1328;SDS011;658;48.820;9.354;2023-02-15T22:23:29;3.77;;;3.57;;
1328;SDS011;658;48.820;9.354;2023-02-15T22:27:30;4.57;;;4.27;;
1328;SDS011;658;48.820;9.354;2023-02-15T22:31:37;3.60;;;3.40;;
1328;SDS011;658;48.820;9.354;2023-02-15T22:35:38;4.07;;;3.77;;
1328;SDS011;658;48.820;9.354;2023-02-15T22:39:39;3.57;;;3.27;;
1328;SDS011;658;48.820;9.354;2023-02-15T22:43:40;4.77;;;3.90;;
1328;SDS011;658;48.820;9.354;2023-02-15T22:47:43;3.53;;;3.33;;
1328;SDS011;658;48.820;9.354;2023-02-15T22:51:48;4.40;;;4.00;;
1328;SDS011;658;48.820;9.354;2023-02-15T22:55:49;4.13;;;3.83;;
1328;SDS011;658;48.820;9.354;2023-02-15T22:59:51;4.10;;;3.90;;
1328;SDS011;658;48.820;9.354;2023-02-15T23:03:51;4.33;;;4.03;;
1328;SDS011;658;48.820;9.354;2023-02-15T23:07:52;4.07;;;3.77;;
1328;SDS011;658;48.820;9.354;2023-02-15T23:11:53;3.90;;;3.70;;
1328;SDS011;658;48.820;9.354;2023-02-15T23:15:55;5.40;;;4.27;;
1328;SDS011;658;48.820;9.354;2023-02-15T23:19:57;5.13;;;4.63;;
1328;SDS011;658;48.820;9.354;2023-02-15T23:24:00;4.20;;;3.90;;
1328;SDS011;658;48.820;9.354;2023-02-15T23:28:22;4.50;;;4.20;;
1328;SDS011;658;48.820;9.354;2023-02-15T23:32:25;4.10;;;3.80;;
1328;SDS011;658;48.820;9.354;2023-02-15T23:36:32;4.27;;;3.80;;
1328;SDS011;658;48.820;9.354;2023-02-15T23:40:35;4.17;;;3.77;;
1328;SDS011;658;48.820;9.354;2023-02-15T23:44:54;4.57;;;4.20;;
1328;SDS011;658;48.820;9.354;2023-02-15T23:48:55;4.20;;;3.90;;
1328;SDS011;658;48.820;9.354;2023-02-15T23:52:56;4.87;;;4.37;;
1328;SDS011;658;48.820;9.354;2023-02-15T23:56:58;4.70;;;4.40;;
